Time;durP1;ratioP1;P1;durP2;ratioP2;P2;SDS_P1;SDS_P2;PMS_P1;PMS_P2;Temp;Humidity;BMP_temperature;BMP_pressure;BME280_temperature;BME280_humidity;BME280_pressure;Samples;Min_cycle;Max_cycle;Signal;HPM_P1;HPM_P2
2022/04/26 03:38:16;;;;;;;6.78;5.43;;;12.10;99.90;;;;;;5057580;28;20322;-85
2022/04/26 03:40:42;;;;;;;7.07;4.60;;;12.10;99.90;;;;;;5057186;28;20185;-88
2022/04/26 03:43:08;;;;;;;5.33;4.37;;;12.00;99.90;;;;;;5038022;28;20194;-87
2022/04/26 03:45:33;;;;;;;8.63;5.97;;;12.00;99.90;;;;;;5056649;28;20528;-85
2022/04/26 03:47:59;;;;;;;5.10;4.40;;;11.90;99.90;;;;;;5057114;28;20213;-88
2022/04/26 03:50:25;;;;;;;8.90;5.40;;;11.80;99.90;;;;;;5039582;28;20213;-84
2022/04/26 03:52:52;;;;;;;8.33;4.30;;;11.80;99.90;;;;;;5039884;28;20218;-84
2022/04/26 03:55:20;;;;;;;6.40;4.68;;;11.70;99.90;;;;;;5038561;28;20528;-87
2022/04/26 03:57:46;;;;;;;6.60;4.10;;;11.70;99.90;;;;;;5037400;28;20197;-88
2022/04/26 04:00:12;;;;;;;7.17;5.13;;;11.70;99.90;;;;;;5039587;28;20181;-88
2022/04/26 04:02:38;;;;;;;6.97;4.32;;;11.70;99.90;;;;;;5040891;28;20966;-87
2022/04/26 04:05:04;;;;;;;6.90;4.50;;;11.60;99.90;;;;;;5040529;28;20178;-85
2022/04/26 04:07:30;;;;;;;7.38;4.50;;;11.70;99.90;;;;;;5060021;28;20221;-86
2022/04/26 04:09:56;;;;;;;6.70;3.40;;;11.70;99.90;;;;;;5062387;28;20233;-88
2022/04/26 04:12:22;;;;;;;7.53;4.40;;;11.70;99.90;;;;;;5053556;28;20198;-88
2022/04/26 04:14:47;;;;;;;7.13;3.80;;;11.70;99.90;;;;;;5054035;28;20395;-87
2022/04/26 04:17:13;;;;;;;10.90;5.03;;;11.70;99.90;;;;;;5021529;28;20436;-86
2022/04/26 04:19:39;;;;;;;5.80;4.53;;;11.70;99.90;;;;;;5014265;28;20981;-87
2022/04/26 04:22:05;;;;;;;5.70;4.27;;;11.80;99.90;;;;;;5012906;28;20255;-88
2022/04/26 04:24:32;;;;;;;5.45;4.82;;;11.80;99.90;;;;;;5012291;28;20270;-84
2022/04/26 04:26:57;;;;;;;7.70;5.35;;;11.70;99.90;;;;;;5014633;28;20228;-85
2022/04/26 04:29:23;;;;;;;4.20;3.80;;;11.80;99.90;;;;;;5012418;28;20223;-85
2022/04/26 04:31:49;;;;;;;4.43;3.40;;;11.80;99.90;;;;;;5012439;28;20210;-88
2022/04/26 04:34:15;;;;;;;5.78;4.45;;;11.80;99.90;;;;;;5013911;28;20663;-87
2022/04/26 04:36:41;;;;;;;5.00;3.92;;;11.80;99.90;;;;;;5029880;28;20187;-84
2022/04/26 04:39:07;;;;;;;4.90;3.60;;;11.90;99.90;;;;;;5013149;28;20206;-87
2022/04/26 04:41:36;;;;;;;4.30;3.50;;;11.90;99.90;;;;;;5013018;28;20175;-87
2022/04/26 04:44:04;;;;;;;6.45;4.25;;;11.90;99.90;;;;;;5013355;28;20270;-85
2022/04/26 04:46:30;;;;;;;5.50;4.40;;;12.00;99.90;;;;;;5014918;28;20640;-89
2022/04/26 04:48:55;;;;;;;5.67;4.53;;;12.00;99.90;;;;;;5013689;28;20221;-85
2022/04/26 04:51:21;;;;;;;11.20;4.83;;;12.00;99.90;;;;;;5014739;28;20187;-84
2022/04/26 04:53:47;;;;;;;5.13;3.60;;;12.00;99.90;;;;;;5036164;27;20560;-87
2022/04/26 04:56:13;;;;;;;6.33;4.17;;;12.10;99.90;;;;;;5028211;28;20195;-85
2022/04/26 04:58:39;;;;;;;5.55;4.82;;;12.10;99.90;;;;;;5018884;28;20230;-86
2022/04/26 05:01:05;;;;;;;3.93;3.50;;;12.10;99.90;;;;;;5103774;27;20210;-87
2022/04/26 05:03:31;;;;;;;7.10;4.07;;;12.20;99.90;;;;;;5031334;27;20667;-85
2022/04/26 05:05:56;;;;;;;5.43;4.20;;;12.20;99.90;;;;;;4997424;28;20425;-88
2022/04/26 05:08:24;;;;;;;7.00;4.80;;;12.30;99.90;;;;;;5029580;27;20714;-84
2022/04/26 05:10:50;;;;;;;5.18;3.40;;;12.30;99.90;;;;;;5065870;28;20709;-88
2022/04/26 05:13:16;;;;;;;4.40;3.80;;;12.40;99.90;;;;;;5101206;28;20184;-84
2022/04/26 05:15:44;;;;;;;6.40;3.20;;;12.40;99.90;;;;;;5121192;28;20416;-84
2022/04/26 05:18:12;;;;;;;6.50;4.40;;;12.40;99.90;;;;;;5129695;28;20192;-88
2022/04/26 05:20:38;;;;;;;6.57;3.15;;;12.40;99.90;;;;;;5098293;28;20179;-84
2022/04/26 05:25:49;;;;;;;5.78;3.90;;;12.40;99.90;;;;;;5116485;28;20229;-88
2022/04/26 05:28:14;;;;;;;7.50;4.07;;;12.40;99.90;;;;;;5098775;28;20211;-88
2022/04/26 05:30:40;;;;;;;4.03;3.00;;;12.50;99.90;;;;;;5116407;28;20191;-87
2022/04/26 05:33:06;;;;;;;7.60;4.67;;;12.50;99.90;;;;;;5115787;28;20197;-87
2022/04/26 05:35:32;;;;;;;5.57;3.80;;;12.50;99.90;;;;;;5114353;28;20183;-87
2022/04/26 05:37:57;;;;;;;5.90;4.27;;;12.60;99.90;;;;;;5114122;28;20215;-85
2022/04/26 05:40:23;;;;;;;6.43;3.90;;;12.60;99.90;;;;;;5097093;28;20424;-85
2022/04/26 05:42:49;;;;;;;5.90;3.87;;;12.70;99.90;;;;;;5097256;28;20614;-85
2022/04/26 05:45:14;;;;;;;8.00;4.50;;;12.80;99.90;;;;;;5109158;28;20179;-84
2022/04/26 05:47:45;;;;;;;6.33;4.13;;;12.90;99.90;;;;;;5112807;28;20219;-85
2022/04/26 05:50:12;;;;;;;6.03;4.03;;;13.00;99.90;;;;;;5112931;28;20517;-87
2022/04/26 05:52:38;;;;;;;7.40;4.43;;;13.00;99.90;;;;;;5114190;28;20789;-85
2022/04/26 05:55:04;;;;;;;7.80;5.17;;;13.10;99.90;;;;;;5091467;28;20416;-88
2022/04/26 05:57:31;;;;;;;9.40;5.17;;;13.20;99.90;;;;;;5092846;28;20443;-84
2022/04/26 05:59:57;;;;;;;9.90;5.80;;;13.30;99.90;;;;;;5104206;28;20427;-84
2022/04/26 06:02:23;;;;;;;10.83;5.20;;;13.30;99.90;;;;;;5091328;28;20536;-84
2022/04/26 06:04:48;;;;;;;8.00;5.60;;;13.40;99.90;;;;;;5106173;28;20416;-84
2022/04/26 06:07:14;;;;;;;6.17;5.40;;;13.50;99.90;;;;;;5112303;28;20211;-84
2022/04/26 06:09:40;;;;;;;7.27;5.60;;;13.60;99.90;;;;;;5086847;28;20203;-87
2022/04/26 06:12:07;;;;;;;8.97;5.50;;;13.70;99.90;;;;;;5014724;28;20305;-84
2022/04/26 06:14:32;;;;;;;9.83;5.63;;;13.80;99.90;;;;;;5009474;28;20428;-88
2022/04/26 06:16:58;;;;;;;7.50;5.27;;;13.90;99.90;;;;;;5016295;28;20459;-89
2022/04/26 06:19:24;;;;;;;9.37;5.73;;;14.00;99.90;;;;;;5031371;28;20635;-88
2022/04/26 06:21:49;;;;;;;10.47;6.57;;;14.00;99.90;;;;;;5019246;28;20210;-85
2022/04/26 06:24:15;;;;;;;9.20;6.20;;;14.10;99.90;;;;;;5012436;28;20555;-85
2022/04/26 06:26:41;;;;;;;8.60;6.13;;;14.20;99.90;;;;;;5008425;28;20551;-87
2022/04/26 06:29:06;;;;;;;8.10;4.93;;;14.30;99.90;;;;;;5015658;28;20218;-88
2022/04/26 06:31:32;;;;;;;10.13;6.10;;;14.30;99.90;;;;;;5035633;27;20277;-90
2022/04/26 06:33:58;;;;;;;8.23;5.67;;;14.40;99.90;;;;;;5013145;28;20534;-87
2022/04/26 06:36:24;;;;;;;9.77;6.43;;;14.50;99.90;;;;;;5014101;28;20183;-89
2022/04/26 06:38:50;;;;;;;9.00;5.80;;;14.60;99.90;;;;;;5037510;28;20214;-85
2022/04/26 06:41:15;;;;;;;7.13;5.60;;;14.70;99.90;;;;;;5073590;27;20183;-88
2022/04/26 06:43:41;;;;;;;9.17;5.67;;;14.80;99.90;;;;;;5042953;27;20195;-85
2022/04/26 06:46:07;;;;;;;7.20;5.30;;;14.90;99.90;;;;;;5017035;28;20524;-85
2022/04/26 06:48:33;;;;;;;7.53;5.90;;;15.00;99.90;;;;;;5028916;28;20297;-85
2022/04/26 06:50:58;;;;;;;5.70;4.63;;;15.10;99.90;;;;;;5030644;28;20300;-88
2022/04/26 06:53:24;;;;;;;8.07;5.90;;;15.20;99.90;;;;;;5088897;27;20203;-88
2022/04/26 06:55:50;;;;;;;6.40;4.83;;;15.30;99.90;;;;;;5123351;27;20466;-88
2022/04/26 06:58:16;;;;;;;6.33;4.47;;;15.40;99.90;;;;;;5039116;27;20233;-85
2022/04/26 07:00:41;;;;;;;7.60;4.73;;;15.50;99.90;;;;;;5061044;27;20182;-85
2022/04/26 07:03:07;;;;;;;6.73;5.23;;;15.60;99.90;;;;;;5012379;28;20436;-85
2022/04/26 07:05:34;;;;;;;6.47;4.23;;;15.70;99.90;;;;;;5008326;28;20195;-85
2022/04/26 07:07:59;;;;;;;5.17;4.33;;;15.80;99.90;;;;;;5047865;27;20305;-89
2022/04/26 07:10:28;;;;;;;7.73;5.27;;;15.90;99.90;;;;;;5067566;27;20531;-85
2022/04/26 07:12:54;;;;;;;7.50;5.30;;;16.00;99.90;;;;;;5048559;28;20447;-85
2022/04/26 07:15:20;;;;;;;7.07;4.70;;;16.10;99.90;;;;;;5036028;28;20483;-88
2022/04/26 07:17:46;;;;;;;6.93;5.23;;;16.20;99.90;;;;;;5017290;28;20439;-88
2022/04/26 07:20:12;;;;;;;5.67;4.37;;;16.30;99.90;;;;;;5057025;28;20183;-88
2022/04/26 07:22:38;;;;;;;8.60;5.97;;;16.40;99.90;;;;;;5053791;28;20441;-85
2022/04/26 07:25:08;;;;;;;6.77;4.67;;;16.50;99.90;;;;;;5041376;28;20175;-85
2022/04/26 07:27:34;;;;;;;5.10;4.50;;;16.60;99.90;;;;;;5033569;28;20444;-86
2022/04/26 07:30:00;;;;;;;6.67;4.77;;;16.70;99.90;;;;;;5061432;28;21018;-85
2022/04/26 07:35:11;;;;;;;7.40;4.60;;;16.90;99.90;;;;;;5118110;28;20938;-85
2022/04/26 07:37:39;;;;;;;4.60;3.47;;;17.00;99.90;;;;;;5094843;28;20462;-85
2022/04/26 07:40:05;;;;;;;6.57;5.00;;;17.10;99.90;;;;;;5116573;28;20888;-85
2022/04/26 07:42:31;;;;;;;8.23;4.53;;;17.20;99.90;;;;;;5116552;28;20485;-85
2022/04/26 07:44:57;;;;;;;6.00;4.63;;;17.30;99.90;;;;;;5143564;28;20392;-88
2022/04/26 07:47:24;;;;;;;5.00;3.97;;;17.40;99.90;;;;;;5068623;28;20615;-89
2022/04/26 07:49:52;;;;;;;5.73;4.40;;;17.50;99.90;;;;;;5003049;28;20225;-85
2022/04/26 07:52:19;;;;;;;6.30;4.40;;;17.60;99.90;;;;;;5012639;28;20440;-85
2022/04/26 07:54:46;;;;;;;6.73;4.47;;;17.80;99.90;;;;;;5011428;28;20522;-88
2022/04/26 07:57:12;;;;;;;5.60;4.53;;;17.90;99.90;;;;;;5025626;28;20547;-89
2022/04/26 07:59:38;;;;;;;5.10;4.60;;;18.00;99.90;;;;;;5007033;28;20840;-88
2022/04/26 08:02:08;;;;;;;5.27;4.10;;;18.10;99.90;;;;;;5027014;28;20452;-88
2022/04/26 08:04:34;;;;;;;6.60;4.77;;;18.20;99.90;;;;;;5026490;28;20419;-85
2022/04/26 08:06:59;;;;;;;4.20;3.80;;;18.30;99.90;;;;;;5007724;28;20999;-88
2022/04/26 08:09:25;;;;;;;6.73;4.97;;;18.30;99.90;;;;;;5008463;28;20240;-89
2022/04/26 08:11:52;;;;;;;6.60;4.60;;;18.50;99.90;;;;;;5000349;28;20224;-89
2022/04/26 08:14:19;;;;;;;4.50;3.90;;;18.60;99.90;;;;;;5006812;28;20747;-85
2022/04/26 08:16:45;;;;;;;4.03;3.53;;;18.70;99.90;;;;;;5009720;28;20693;-88
2022/04/26 08:19:11;;;;;;;4.40;3.37;;;18.80;99.90;;;;;;5020637;28;20426;-88
2022/04/26 08:21:40;;;;;;;4.60;4.20;;;18.90;99.90;;;;;;4997532;28;20495;-88
2022/04/26 08:29:35;;;;;;;5.07;4.20;;;19.30;99.90;;;;;;5010392;28;20477;-88
2022/04/26 08:32:01;;;;;;;3.33;2.83;;;19.40;99.90;;;;;;5012210;28;20992;-89
2022/04/26 08:34:28;;;;;;;3.10;2.63;;;19.50;99.90;;;;;;5031120;28;20397;-85
2022/04/26 08:36:54;;;;;;;2.97;2.40;;;19.60;99.90;;;;;;5012419;28;20212;-88
2022/04/26 08:39:21;;;;;;;3.60;3.30;;;19.70;99.90;;;;;;5017236;28;20428;-90
2022/04/26 08:41:47;;;;;;;3.47;3.17;;;19.80;99.90;;;;;;5036552;27;20871;-89
2022/04/26 08:44:12;;;;;;;4.80;3.17;;;20.00;99.90;;;;;;5053522;27;20433;-89
2022/04/26 08:52:10;;;;;;;4.50;3.23;;;20.30;99.90;;;;;;5030982;28;20530;-90
2022/04/26 08:54:36;;;;;;;3.13;2.53;;;20.40;99.90;;;;;;5012468;28;20416;-89
2022/04/26 08:57:02;;;;;;;3.00;2.70;;;20.60;99.90;;;;;;5098901;27;20398;-90
2022/04/26 08:59:30;;;;;;;2.60;2.40;;;20.60;98.20;;;;;;5029153;28;20201;-89
2022/04/26 09:02:15;;;;;;;3.87;2.90;;;20.80;98.00;;;;;;5034831;28;20451;-89
2022/04/26 09:04:41;;;;;;;3.20;2.57;;;21.10;97.70;;;;;;5059437;27;20855;-89
2022/04/26 09:07:12;;;;;;;3.13;2.83;;;21.50;97.20;;;;;;5043970;27;20468;-85
2022/04/26 09:09:42;;;;;;;3.77;2.93;;;21.80;96.40;;;;;;5026955;27;20499;-86
2022/04/26 09:12:12;;;;;;;2.43;2.23;;;22.00;95.70;;;;;;5005140;28;20464;-86
2022/04/26 09:14:47;;;;;;;2.90;2.33;;;22.10;94.60;;;;;;5019014;27;20561;-89
2022/04/26 09:17:16;;;;;;;2.60;2.10;;;22.10;94.40;;;;;;5010181;28;20505;-89
2022/04/26 09:19:50;;;;;;;3.97;3.47;;;22.00;93.00;;;;;;5006770;28;20420;-89
2022/04/26 09:22:21;;;;;;;3.50;3.20;;;22.00;94.10;;;;;;5012417;28;20907;-89
2022/04/26 09:25:04;;;;;;;4.40;3.00;;;21.90;93.20;;;;;;5030356;28;20444;-89
2022/04/26 09:27:33;;;;;;;3.20;2.50;;;21.90;93.30;;;;;;5008228;28;20991;-89
2022/04/26 09:30:06;;;;;;;3.77;3.13;;;21.90;92.70;;;;;;5007492;28;20443;-86
2022/04/26 09:32:44;;;;;;;2.80;2.50;;;21.90;93.60;;;;;;5027304;28;20424;-85
2022/04/26 09:35:20;;;;;;;3.90;3.00;;;21.90;95.30;;;;;;5009141;28;20434;-85
2022/04/26 09:37:49;;;;;;;3.80;3.07;;;22.00;92.80;;;;;;5010411;28;20991;-88
2022/04/26 09:40:17;;;;;;;3.53;2.80;;;22.00;91.80;;;;;;5010378;28;20447;-88
2022/04/26 09:42:43;;;;;;;3.03;2.60;;;22.00;93.00;;;;;;5010740;28;20470;-89
2022/04/26 09:45:10;;;;;;;3.47;2.97;;;22.10;94.20;;;;;;5045166;28;20419;-90
2022/04/26 09:47:41;;;;;;;2.77;2.57;;;22.10;93.70;;;;;;5027601;28;20190;-89
2022/04/26 09:50:09;;;;;;;3.33;3.00;;;22.10;92.50;;;;;;5028608;28;20446;-89
2022/04/26 09:52:39;;;;;;;3.87;3.10;;;22.20;92.20;;;;;;5010488;28;20440;-89
2022/04/26 09:55:10;;;;;;;3.73;2.97;;;22.10;93.80;;;;;;5055594;27;20415;-89
2022/04/26 09:57:37;;;;;;;4.90;3.10;;;22.20;94.30;;;;;;5018949;28;20460;-88
2022/04/26 10:00:11;;;;;;;4.83;2.90;;;22.20;93.50;;;;;;5010007;28;20440;-89
2022/04/26 10:02:56;;;;;;;3.43;2.70;;;22.20;94.50;;;;;;5022572;28;20452;-85
2022/04/26 10:05:24;;;;;;;2.70;2.47;;;22.20;92.30;;;;;;5018559;28;20436;-89
2022/04/26 10:07:51;;;;;;;3.03;2.63;;;22.20;92.20;;;;;;5017876;28;20448;-85
2022/04/26 10:10:21;;;;;;;2.70;2.40;;;22.20;91.10;;;;;;5042805;28;20553;-88
2022/04/26 10:13:31;;;;;;;2.50;2.30;;;22.10;91.20;;;;;;5108465;28;20435;-89
2022/04/26 10:15:37;;;;;;;2.63;2.30;;;22.10;91.00;;;;;;5114008;28;20580;-89
2022/04/26 10:18:39;;;;;;;3.10;2.80;;;22.00;91.50;;;;;;5113015;28;20454;-89
2022/04/26 10:21:06;;;;;;;3.70;2.50;;;22.00;91.00;;;;;;5087317;28;20450;-89
2022/04/26 10:23:50;;;;;;;3.27;2.97;;;22.00;90.60;;;;;;5087894;28;20440;-85
2022/04/26 10:26:22;;;;;;;2.87;2.67;;;22.00;91.80;;;;;;5096011;28;20443;-86
2022/04/26 10:28:50;;;;;;;2.60;2.33;;;22.00;92.30;;;;;;5112898;28;20499;-85
2022/04/26 10:31:17;;;;;;;3.57;2.47;;;22.00;92.00;;;;;;5095827;28;20435;-89
2022/04/26 10:33:45;;;;;;;2.60;2.40;;;22.10;91.50;;;;;;5098608;28;20812;-85
2022/04/26 10:36:38;;;;;;;3.17;2.87;;;22.10;91.50;;;;;;5099103;28;20439;-86
2022/04/26 10:39:25;;;;;;;3.10;2.80;;;22.20;91.80;;;;;;5090927;27;21026;-86
2022/04/26 10:41:53;;;;;;;2.87;2.57;;;22.30;91.30;;;;;;5091814;27;21046;-86
2022/04/26 10:44:21;;;;;;;2.50;2.30;;;22.20;90.90;;;;;;5101205;28;20530;-89
2022/04/26 10:47:08;;;;;;;2.93;2.67;;;22.20;91.00;;;;;;5103940;28;20542;-89
2022/04/26 10:49:34;;;;;;;3.07;2.77;;;22.20;90.00;;;;;;5087014;28;20460;-89
2022/04/26 10:52:19;;;;;;;2.97;2.60;;;22.20;90.70;;;;;;5099498;28;20459;-85
2022/04/26 10:55:02;;;;;;;2.53;2.33;;;22.20;90.20;;;;;;5108513;28;20494;-86
2022/04/26 10:57:43;;;;;;;3.80;2.83;;;22.20;89.40;;;;;;5086960;28;20506;-86
2022/04/26 11:00:15;;;;;;;2.50;2.30;;;22.20;89.90;;;;;;5087711;28;20483;-86
2022/04/26 11:02:43;;;;;;;3.67;2.60;;;22.20;89.30;;;;;;5085652;28;21015;-86
2022/04/26 11:05:16;;;;;;;3.33;2.17;;;22.20;90.50;;;;;;5105723;28;20418;-89
2022/04/26 11:07:45;;;;;;;2.53;2.20;;;22.30;90.50;;;;;;5100597;28;20448;-86
2022/04/26 11:10:13;;;;;;;3.03;2.13;;;22.30;90.80;;;;;;5107268;28;20690;-86
2022/04/26 11:12:40;;;;;;;2.50;2.30;;;22.40;90.40;;;;;;5095434;27;20431;-85
2022/04/26 11:15:20;;;;;;;2.93;2.63;;;22.30;90.10;;;;;;5098036;27;20454;-86
2022/04/26 11:17:48;;;;;;;3.70;2.60;;;22.20;89.80;;;;;;5097869;27;20439;-90
2022/04/26 11:20:17;;;;;;;3.43;2.53;;;22.10;90.20;;;;;;5108706;27;20554;-90
2022/04/26 11:22:55;;;;;;;2.27;2.07;;;22.00;90.30;;;;;;5090112;28;20452;-86
2022/04/26 11:28:10;;;;;;;3.37;2.53;;;21.90;90.60;;;;;;5113790;28;20482;-86
2022/04/26 11:30:54;;;;;;;2.57;2.37;;;21.90;90.30;;;;;;5107858;28;20469;-87
2022/04/26 11:33:22;;;;;;;2.37;2.17;;;21.90;90.90;;;;;;5117080;28;20543;-88
2022/04/26 11:36:02;;;;;;;4.23;2.90;;;21.90;91.00;;;;;;5113897;28;20462;-88
2022/04/26 11:38:28;;;;;;;3.27;2.40;;;22.00;90.60;;;;;;5112385;28;20441;-89
2022/04/26 11:40:59;;;;;;;3.53;2.53;;;22.10;90.80;;;;;;5098825;28;20901;-89
2022/04/26 11:43:27;;;;;;;3.03;2.50;;;22.20;90.90;;;;;;5117394;27;20424;-89
2022/04/26 11:45:56;;;;;;;2.77;2.03;;;22.30;91.30;;;;;;5118887;28;20454;-89
2022/04/26 11:48:29;;;;;;;2.40;2.20;;;22.40;91.10;;;;;;5114564;28;20475;-86
2022/04/26 11:50:57;;;;;;;2.37;2.07;;;22.50;91.10;;;;;;5115058;28;20440;-86
2022/04/26 11:53:29;;;;;;;2.30;2.10;;;22.60;90.50;;;;;;5092959;28;20463;-85
2022/04/26 11:56:17;;;;;;;2.03;1.90;;;22.60;90.10;;;;;;5102113;28;20439;-85
2022/04/26 11:58:43;;;;;;;3.03;2.67;;;22.70;89.30;;;;;;5108224;27;20436;-88
2022/04/26 12:01:11;;;;;;;2.50;2.30;;;22.60;88.70;;;;;;5108243;27;20477;-85
2022/04/26 12:03:48;;;;;;;4.10;2.37;;;22.60;88.50;;;;;;5119693;27;20282;-85
2022/04/26 12:06:29;;;;;;;2.50;2.30;;;22.50;89.60;;;;;;5117765;27;20473;-85
2022/04/26 12:08:57;;;;;;;3.30;2.00;;;22.40;89.40;;;;;;5094722;27;20895;-85
2022/04/26 12:11:32;;;;;;;2.37;2.17;;;22.30;90.60;;;;;;5044081;27;20834;-86
2022/04/26 12:13:59;;;;;;;2.50;2.30;;;22.30;91.10;;;;;;5011006;28;20960;-89
2022/04/26 12:16:26;;;;;;;2.40;2.20;;;22.20;91.60;;;;;;5012652;28;20463;-85
2022/04/26 12:18:57;;;;;;;2.03;1.83;;;22.10;91.00;;;;;;5033006;27;20427;-89
2022/04/26 12:21:47;;;;;;;2.70;2.10;;;22.00;90.90;;;;;;5015381;27;20504;-88
2022/04/26 12:24:24;;;;;;;2.93;2.70;;;22.00;91.80;;;;;;5021034;28;20432;-88
2022/04/26 12:26:55;;;;;;;2.63;2.43;;;22.00;91.80;;;;;;5066146;28;20455;-89
2022/04/26 12:29:26;;;;;;;3.83;2.30;;;22.00;92.30;;;;;;5011656;27;20483;-86
2022/04/26 12:31:52;;;;;;;2.37;2.17;;;21.90;91.50;;;;;;5012886;28;20853;-86
2022/04/26 12:34:22;;;;;;;2.60;2.27;;;21.90;91.30;;;;;;5012254;28;20432;-89
2022/04/26 12:37:02;;;;;;;4.13;1.93;;;22.00;91.80;;;;;;5002856;28;20198;-89
2022/04/26 12:39:44;;;;;;;3.17;2.20;;;22.00;91.10;;;;;;5078035;28;20446;-89
2022/04/26 12:42:14;;;;;;;2.70;2.50;;;22.00;91.70;;;;;;5018960;28;20467;-90
2022/04/26 12:44:52;;;;;;;2.17;1.97;;;22.00;91.70;;;;;;5012367;28;20428;-89
2022/04/26 12:53:19;;;;;;;2.47;2.27;;;22.00;91.80;;;;;;5041682;27;20516;-88
2022/04/26 12:55:45;;;;;;;2.17;1.97;;;22.10;90.60;;;;;;5023763;28;20454;-89
2022/04/26 12:58:14;;;;;;;2.60;1.80;;;22.10;91.10;;;;;;5039521;28;20504;-89
2022/04/26 13:00:54;;;;;;;2.40;2.20;;;22.10;90.30;;;;;;5035697;28;20235;-90
2022/04/26 13:03:25;;;;;;;2.53;2.33;;;22.10;90.30;;;;;;5028362;28;20451;-90
2022/04/26 13:06:03;;;;;;;2.60;2.40;;;22.00;90.50;;;;;;5014641;27;20492;-89
2022/04/26 13:08:29;;;;;;;2.37;2.17;;;22.10;91.00;;;;;;5015949;28;20809;-85
2022/04/26 13:10:55;;;;;;;2.87;2.30;;;22.00;90.50;;;;;;5046223;27;21182;-88
2022/04/26 13:13:21;;;;;;;3.97;2.67;;;22.00;91.50;;;;;;5031211;27;20217;-89
2022/04/26 13:15:47;;;;;;;2.63;2.43;;;22.00;91.40;;;;;;5011624;28;20439;-89
2022/04/26 13:18:15;;;;;;;2.17;2.07;;;21.90;90.00;;;;;;5017141;27;20452;-88
2022/04/26 13:20:43;;;;;;;2.80;2.60;;;22.00;90.30;;;;;;5053868;27;20439;-89
2022/04/26 13:23:10;;;;;;;2.40;1.97;;;21.90;90.10;;;;;;5122689;27;20869;-85
2022/04/26 13:25:36;;;;;;;3.03;2.63;;;21.90;89.90;;;;;;5028174;27;20420;-88
2022/04/26 13:28:05;;;;;;;2.70;2.30;;;21.80;89.60;;;;;;5003250;27;20467;-86
2022/04/26 13:30:35;;;;;;;2.60;2.27;;;21.80;89.00;;;;;;5026683;27;21111;-85
2022/04/26 13:33:02;;;;;;;2.17;1.87;;;21.70;88.70;;;;;;5008439;28;20452;-85
2022/04/26 13:35:27;;;;;;;2.10;1.90;;;21.70;90.00;;;;;;5015957;28;20669;-86
2022/04/26 13:38:01;;;;;;;3.50;2.80;;;21.70;90.00;;;;;;5008628;27;20980;-85
2022/04/26 13:40:27;;;;;;;2.40;2.20;;;21.70;89.60;;;;;;5005111;28;20272;-85
2022/04/26 13:42:52;;;;;;;2.73;2.20;;;21.70;90.20;;;;;;5049495;27;20530;-85
2022/04/26 13:45:20;;;;;;;2.40;2.20;;;21.80;90.40;;;;;;5047231;28;20446;-89
2022/04/26 13:47:46;;;;;;;2.23;2.03;;;21.80;89.80;;;;;;5053860;27;20539;-89
2022/04/26 13:50:12;;;;;;;2.53;2.33;;;21.90;90.60;;;;;;5016453;28;20436;-85
2022/04/26 13:52:41;;;;;;;2.67;2.47;;;21.90;90.20;;;;;;5027270;28;20455;-86
2022/04/26 13:55:07;;;;;;;2.73;2.30;;;22.00;89.50;;;;;;5050622;27;20919;-85
2022/04/26 13:57:33;;;;;;;2.37;1.83;;;22.00;89.30;;;;;;5095557;27;20508;-89
2022/04/26 14:00:01;;;;;;;2.33;2.13;;;22.00;89.00;;;;;;5023725;27;20419;-89
2022/04/26 14:02:26;;;;;;;2.30;2.10;;;22.10;89.60;;;;;;5091051;27;20455;-89
2022/04/26 14:04:52;;;;;;;2.03;1.90;;;22.10;89.10;;;;;;5006814;28;21022;-85
2022/04/26 14:07:18;;;;;;;2.10;1.90;;;22.20;90.40;;;;;;5008903;27;20211;-89
2022/04/26 14:09:44;;;;;;;2.60;2.40;;;22.20;90.40;;;;;;5083980;27;20475;-86
2022/04/26 14:12:11;;;;;;;3.37;2.50;;;22.20;91.10;;;;;;5107835;27;20471;-89
2022/04/26 14:22:52;;;;;;;2.90;2.40;;;22.20;89.50;;;;;;5105671;27;20479;-89
2022/04/26 14:25:18;;;;;;;2.90;2.60;;;22.10;89.00;;;;;;5092109;28;20428;-85
2022/04/26 14:27:47;;;;;;;2.60;2.37;;;22.10;89.70;;;;;;5095590;28;21020;-89
2022/04/26 14:30:13;;;;;;;1.87;1.70;;;22.10;89.90;;;;;;5095372;28;20425;-89
2022/04/26 14:32:39;;;;;;;2.80;2.20;;;22.10;87.80;;;;;;5091759;28;20795;-86
2022/04/26 14:35:06;;;;;;;1.97;1.87;;;22.10;88.50;;;;;;5091541;27;20428;-89
2022/04/26 14:37:33;;;;;;;2.40;2.20;;;22.10;88.10;;;;;;5112764;27;21157;-87
2022/04/26 14:39:59;;;;;;;2.00;1.80;;;22.10;88.50;;;;;;5096008;27;20514;-89
2022/04/26 14:42:26;;;;;;;4.03;1.63;;;22.10;89.30;;;;;;5099044;28;20534;-86
2022/04/26 14:44:52;;;;;;;3.63;2.67;;;22.10;88.60;;;;;;5108916;27;20424;-89
2022/04/26 14:47:18;;;;;;;3.70;2.90;;;22.10;89.00;;;;;;5112002;27;20522;-86
2022/04/26 14:49:44;;;;;;;5.10;3.17;;;22.10;88.90;;;;;;5108931;28;20249;-88
2022/04/26 14:52:14;;;;;;;2.67;2.27;;;22.10;89.70;;;;;;5115312;27;20204;-86
2022/04/26 14:54:40;;;;;;;2.37;2.07;;;22.20;89.10;;;;;;5091235;28;20439;-86
2022/04/26 14:57:06;;;;;;;2.67;1.90;;;22.20;88.80;;;;;;5090945;28;20533;-86
2022/04/26 14:59:33;;;;;;;3.23;2.40;;;22.20;87.40;;;;;;5092032;28;20481;-86
2022/04/26 15:01:59;;;;;;;2.90;2.60;;;22.20;87.70;;;;;;5086803;28;20203;-87
2022/04/26 15:04:26;;;;;;;2.10;1.90;;;22.20;88.50;;;;;;5103160;28;20419;-85
2022/04/26 15:06:52;;;;;;;2.20;1.93;;;22.20;89.20;;;;;;5084101;28;20450;-88
2022/04/26 15:17:32;;;;;;;3.47;2.40;;;22.10;88.80;;;;;;5042798;28;20441;-88
2022/04/26 15:19:59;;;;;;;1.97;1.80;;;22.00;88.50;;;;;;5045411;28;20407;-87
2022/04/26 15:22:26;;;;;;;2.23;1.80;;;22.00;88.50;;;;;;5031902;28;20193;-87
2022/04/26 15:24:54;;;;;;;2.07;1.97;;;22.00;88.50;;;;;;5038040;28;20431;-87
2022/04/26 15:27:20;;;;;;;1.97;1.77;;;21.90;89.10;;;;;;5008322;28;20581;-87
2022/04/26 15:29:48;;;;;;;2.10;2.00;;;21.90;89.40;;;;;;5007806;28;20456;-91
2022/04/26 15:32:14;;;;;;;2.23;2.00;;;21.90;89.90;;;;;;5011300;28;20532;-85
2022/04/26 15:34:40;;;;;;;2.37;2.10;;;21.80;90.00;;;;;;5016117;28;20408;-88
2022/04/26 15:37:06;;;;;;;2.20;2.00;;;21.80;89.70;;;;;;5034728;28;20866;-89
2022/04/26 15:39:33;;;;;;;3.40;2.20;;;21.80;90.00;;;;;;5018708;28;20223;-89
2022/04/26 15:41:59;;;;;;;1.93;1.80;;;21.80;90.10;;;;;;5031530;28;20503;-89
2022/04/26 15:44:25;;;;;;;2.37;2.00;;;21.70;90.30;;;;;;5033818;28;20408;-89
2022/04/26 15:46:56;;;;;;;2.47;2.03;;;21.70;90.30;;;;;;5009433;28;20844;-89
2022/04/26 15:49:23;;;;;;;2.33;2.13;;;21.70;90.20;;;;;;5014883;28;20456;-88
2022/04/26 15:51:49;;;;;;;2.17;2.07;;;21.70;90.50;;;;;;4998136;28;20447;-89
2022/04/26 15:54:16;;;;;;;2.17;1.97;;;21.70;90.10;;;;;;5047952;27;20420;-87
2022/04/26 15:56:45;;;;;;;2.40;1.90;;;21.70;90.10;;;;;;5040853;28;20838;-87
2022/04/26 15:59:11;;;;;;;2.60;2.40;;;21.70;90.30;;;;;;5069753;28;20435;-89
2022/04/26 16:01:41;;;;;;;2.07;1.87;;;21.70;90.10;;;;;;5033090;28;20471;-91
2022/04/26 16:04:09;;;;;;;10.40;2.10;;;21.70;89.50;;;;;;5028852;28;20419;-87
2022/04/26 16:06:37;;;;;;;3.47;2.20;;;21.70;89.90;;;;;;5017190;28;20593;-88
2022/04/26 16:22:45;;;;;;;2.57;2.10;;;21.70;91.00;;;;;;5116211;28;20442;-89
2022/04/26 16:25:10;;;;;;;3.10;2.80;;;21.70;91.20;;;;;;5094286;28;20437;-86
2022/04/26 16:27:36;;;;;;;5.63;3.07;;;21.60;91.20;;;;;;5096668;28;20223;-87
2022/04/26 16:30:02;;;;;;;6.73;3.00;;;21.60;91.30;;;;;;5109375;28;20204;-89
2022/04/26 16:32:28;;;;;;;2.53;2.33;;;21.60;91.40;;;;;;5101052;28;20207;-88
2022/04/26 16:34:56;;;;;;;3.70;2.40;;;21.50;91.50;;;;;;5099262;28;20420;-88
2022/04/26 16:37:23;;;;;;;3.30;2.80;;;21.50;91.60;;;;;;5107949;28;20523;-88
2022/04/26 16:39:49;;;;;;;3.33;2.87;;;21.40;91.70;;;;;;5115780;28;20877;-86
2022/04/26 16:42:15;;;;;;;6.00;4.03;;;21.40;91.80;;;;;;5098420;28;20491;-89
2022/04/26 16:44:41;;;;;;;4.80;4.00;;;21.40;91.90;;;;;;5115272;28;20191;-89
2022/04/26 16:47:07;;;;;;;4.73;4.23;;;21.30;92.00;;;;;;5099382;28;20208;-88
2022/04/26 16:49:33;;;;;;;4.07;3.47;;;21.30;92.10;;;;;;5115719;28;21013;-88
2022/04/26 16:51:59;;;;;;;4.87;3.70;;;21.20;92.10;;;;;;5096097;28;20459;-88
2022/04/26 16:54:25;;;;;;;5.20;4.33;;;21.20;92.20;;;;;;5097447;28;20176;-87
2022/04/26 16:56:51;;;;;;;9.33;6.50;;;21.20;92.30;;;;;;5115873;28;20447;-88
2022/04/26 16:59:17;;;;;;;14.83;7.50;;;21.10;92.40;;;;;;5116080;28;20415;-89
2022/04/26 17:01:44;;;;;;;10.17;6.37;;;21.10;92.40;;;;;;5102826;28;20204;-89
2022/04/26 17:04:12;;;;;;;44.27;25.20;;;21.00;92.30;;;;;;5097681;28;20808;-89
2022/04/26 17:06:39;;;;;;;27.50;15.80;;;21.00;92.50;;;;;;5097952;28;20446;-91
2022/04/26 17:09:07;;;;;;;43.47;26.23;;;21.00;92.50;;;;;;5113913;28;20867;-88
2022/04/26 17:11:42;;;;;;;58.20;36.40;;;21.00;92.20;;;;;;5020629;28;20486;-91
2022/04/26 17:14:17;;;;;;;33.00;19.73;;;20.90;92.20;;;;;;5009756;28;20431;-89
2022/04/26 17:16:45;;;;;;;14.20;10.20;;;20.90;92.60;;;;;;5029445;28;20454;-89
2022/04/26 17:19:15;;;;;;;13.97;7.33;;;20.90;92.60;;;;;;5013669;28;20435;-91
2022/04/26 17:21:42;;;;;;;16.03;9.57;;;20.80;92.70;;;;;;5038226;28;20443;-91
2022/04/26 17:26:54;;;;;;;14.30;9.47;;;20.70;93.50;;;;;;5136033;27;20538;-88